createdAt,value
2023-02-15T00:00:15.538Z,34.73
2023-02-15T00:02:42.446Z,36.17
2023-02-15T00:05:09.980Z,34.90
2023-02-15T00:07:36.824Z,37.70
2023-02-15T00:10:04.654Z,38.22
2023-02-15T00:12:31.465Z,34.80
2023-02-15T00:14:58.364Z,40.80
2023-02-15T00:17:25.249Z,33.88
2023-02-15T00:19:52.187Z,30.45
2023-02-15T00:22:19.193Z,35.00
2023-02-15T00:24:46.125Z,35.23
2023-02-15T00:27:13.292Z,34.03
2023-02-15T00:29:40.431Z,38.25
2023-02-15T00:32:07.576Z,32.97
2023-02-15T00:34:34.536Z,31.27
2023-02-15T00:37:01.423Z,31.13
2023-02-15T00:39:29.938Z,32.33
2023-02-15T00:41:56.913Z,33.40
2023-02-15T00:44:23.898Z,30.58
2023-02-15T00:46:50.709Z,32.67
2023-02-15T00:49:17.622Z,34.03
2023-02-15T00:51:44.435Z,35.22
2023-02-15T00:54:11.491Z,31.75
2023-02-15T00:56:38.395Z,34.80
2023-02-15T00:59:05.292Z,34.78
2023-02-15T01:01:33.515Z,34.00
2023-02-15T01:04:00.562Z,35.13
2023-02-15T01:06:29.914Z,31.45
2023-02-15T01:08:56.737Z,34.50
2023-02-15T01:11:24.178Z,34.05
2023-02-15T01:13:59.040Z,35.23
2023-02-15T01:16:28.529Z,34.13
2023-02-15T01:18:55.758Z,34.08
2023-02-15T01:21:24.489Z,33.13
2023-02-15T01:23:51.293Z,39.58
2023-02-15T01:26:18.699Z,31.73
2023-02-15T01:28:46.578Z,34.55
2023-02-15T01:31:16.707Z,31.73
2023-02-15T01:33:46.707Z,33.17
2023-02-15T01:36:14.057Z,31.75
2023-02-15T01:38:41.103Z,32.50
2023-02-15T01:41:28.091Z,34.38
2023-02-15T01:44:00.750Z,34.65
2023-02-15T01:46:41.524Z,32.15
2023-02-15T01:49:15.530Z,31.42
2023-02-15T01:51:45.300Z,33.20
2023-02-15T01:54:28.716Z,31.77
2023-02-15T01:57:03.524Z,35.35
2023-02-15T01:59:34.074Z,30.92
2023-02-15T02:02:03.536Z,34.70
2023-02-15T02:04:42.850Z,36.70
2023-02-15T02:07:13.548Z,37.10
2023-02-15T02:09:40.656Z,31.33
2023-02-15T02:12:09.326Z,34.22
2023-02-15T02:14:37.585Z,33.80
2023-02-15T02:17:14.697Z,37.17
2023-02-15T02:20:12.918Z,32.00
2023-02-15T02:23:17.158Z,29.45
2023-02-15T02:25:44.018Z,30.25
2023-02-15T02:28:44.386Z,36.90
2023-02-15T02:31:29.473Z,30.37
2023-02-15T02:34:02.943Z,31.73
2023-02-15T02:36:53.046Z,28.42
2023-02-15T02:40:04.829Z,32.63
2023-02-15T02:42:40.905Z,35.40
2023-02-15T02:45:21.199Z,31.10
2023-02-15T02:48:11.426Z,31.63
2023-02-15T02:50:41.599Z,29.80
2023-02-15T02:53:12.323Z,30.15
2023-02-15T02:55:46.559Z,35.10
2023-02-15T02:58:35.820Z,35.30
2023-02-15T03:01:25.704Z,33.30
2023-02-15T03:03:59.424Z,35.75
2023-02-15T03:06:37.342Z,33.22
2023-02-15T03:09:18.520Z,35.85
2023-02-15T03:11:46.092Z,31.23
2023-02-15T03:14:17.141Z,35.00
2023-02-15T03:16:48.356Z,34.83
2023-02-15T03:19:20.218Z,29.98
2023-02-15T03:22:10.391Z,33.83
2023-02-15T03:24:43.431Z,29.53
2023-02-15T03:27:18.312Z,32.97
2023-02-15T03:29:49.891Z,30.65
2023-02-15T03:32:18.814Z,33.10
2023-02-15T03:34:46.428Z,31.27
2023-02-15T03:37:35.274Z,33.90
2023-02-15T03:40:41.326Z,30.83
2023-02-15T03:43:17.977Z,31.75
2023-02-15T03:45:55.816Z,32.10
2023-02-15T03:48:30.750Z,31.85
2023-02-15T03:51:25.002Z,33.30
2023-02-15T03:53:54.620Z,34.45
2023-02-15T03:56:21.522Z,32.10
2023-02-15T03:59:06.895Z,32.72
2023-02-15T04:02:00.936Z,38.63
2023-02-15T04:04:38.064Z,34.00
2023-02-15T04:07:08.665Z,30.75
2023-02-15T04:09:54.303Z,33.47
2023-02-15T04:12:21.547Z,32.30
2023-02-15T04:15:06.974Z,33.92
2023-02-15T04:17:34.048Z,31.10
2023-02-15T04:20:19.746Z,33.85
2023-02-15T04:23:05.068Z,33.40
2023-02-15T04:25:32.011Z,33.15
2023-02-15T04:27:59.076Z,35.67
2023-02-15T04:30:27.043Z,30.53
2023-02-15T04:32:56.496Z,31.45
2023-02-15T04:35:23.441Z,31.73
2023-02-15T04:37:50.352Z,30.85
2023-02-15T04:40:19.629Z,30.63
2023-02-15T04:42:50.086Z,35.03
2023-02-15T04:45:17.919Z,29.23
2023-02-15T04:47:45.236Z,30.98
2023-02-15T04:50:12.396Z,30.42
2023-02-15T04:52:39.374Z,31.30
2023-02-15T04:55:06.766Z,31.40
2023-02-15T04:57:33.661Z,32.75
2023-02-15T05:00:00.629Z,29.00
2023-02-15T05:02:27.583Z,28.77
2023-02-15T05:04:54.465Z,32.67
2023-02-15T05:07:21.506Z,29.23
2023-02-15T05:09:48.844Z,28.80
2023-02-15T05:12:15.750Z,31.95
2023-02-15T05:14:42.666Z,25.48
2023-02-15T05:17:09.482Z,28.70
2023-02-15T05:19:36.366Z,29.33
2023-02-15T05:22:03.306Z,27.90
2023-02-15T05:24:48.995Z,30.17
2023-02-15T05:27:34.625Z,28.85
2023-02-15T05:30:01.544Z,27.98
2023-02-15T05:32:28.520Z,32.00
2023-02-15T05:34:55.463Z,29.50
2023-02-15T05:37:22.345Z,30.27
2023-02-15T05:39:49.253Z,29.48
2023-02-15T05:42:16.068Z,32.90
2023-02-15T05:44:43.121Z,30.83
2023-02-15T05:47:10.051Z,28.35
2023-02-15T05:49:37.139Z,31.20
2023-02-15T05:52:04.938Z,28.30
2023-02-15T05:54:31.810Z,32.75
2023-02-15T05:56:58.632Z,29.73
2023-02-15T05:59:25.568Z,30.48
2023-02-15T06:01:52.367Z,36.67
2023-02-15T06:04:19.158Z,31.25
2023-02-15T06:06:45.962Z,29.13
2023-02-15T06:09:13.952Z,31.00
2023-02-15T06:11:40.814Z,27.95
2023-02-15T06:14:07.592Z,30.15
2023-02-15T06:16:34.406Z,31.48
2023-02-15T06:19:02.791Z,30.15
2023-02-15T06:21:30.731Z,29.20
2023-02-15T06:23:57.713Z,36.28
2023-02-15T06:26:24.843Z,34.92
2023-02-15T06:28:53.685Z,31.00
2023-02-15T06:31:21.040Z,31.20
2023-02-15T06:33:47.962Z,29.37
2023-02-15T06:36:14.805Z,31.85
2023-02-15T06:38:41.561Z,27.73
2023-02-15T06:41:08.464Z,30.70
2023-02-15T06:43:35.253Z,33.40
2023-02-15T06:46:03.197Z,36.97
2023-02-15T06:48:30.242Z,29.83
2023-02-15T06:50:57.255Z,33.00
2023-02-15T06:53:24.253Z,30.50
2023-02-15T06:55:51.162Z,30.92
2023-02-15T06:58:18.047Z,33.00
2023-02-15T07:00:45.039Z,31.10
2023-02-15T07:03:14.457Z,35.35
2023-02-15T07:05:41.270Z,31.50
2023-02-15T07:08:08.142Z,33.42
2023-02-15T07:10:34.955Z,30.23
2023-02-15T07:13:01.833Z,34.17
2023-02-15T07:15:28.770Z,32.38
2023-02-15T07:17:55.531Z,30.17
2023-02-15T07:20:23.781Z,33.28
2023-02-15T07:22:52.224Z,32.67
2023-02-15T07:25:19.504Z,34.63
2023-02-15T07:27:46.475Z,34.60
2023-02-15T07:30:15.881Z,34.17
2023-02-15T07:33:05.125Z,34.47
2023-02-15T07:35:33.339Z,34.50
2023-02-15T07:38:00.326Z,32.35
2023-02-15T07:40:27.324Z,37.60
2023-02-15T07:42:55.553Z,35.95
2023-02-15T07:45:22.961Z,29.45
2023-02-15T07:47:49.819Z,32.97
2023-02-15T07:50:16.842Z,39.78
2023-02-15T07:52:44.025Z,35.17
2023-02-15T07:55:13.668Z,34.42
2023-02-15T07:57:48.195Z,33.92
2023-02-15T08:00:17.793Z,32.90
2023-02-15T08:03:13.499Z,31.45
2023-02-15T08:05:45.897Z,36.67
2023-02-15T08:08:31.683Z,32.42
2023-02-15T08:11:26.166Z,38.40
2023-02-15T08:13:57.366Z,35.97
2023-02-15T08:16:32.125Z,38.72
2023-02-15T08:19:00.940Z,35.97
2023-02-15T08:21:29.703Z,35.63
2023-02-15T08:23:56.829Z,32.22
2023-02-15T08:26:24.800Z,34.40
2023-02-15T08:28:52.473Z,35.03
2023-02-15T08:31:20.729Z,39.05
2023-02-15T08:33:49.678Z,38.38
2023-02-15T08:36:19.744Z,34.97
2023-02-15T08:38:46.901Z,37.90
2023-02-15T08:41:16.722Z,36.65
2023-02-15T08:43:44.116Z,31.98
2023-02-15T08:46:12.894Z,33.55
2023-02-15T08:48:39.963Z,34.58
2023-02-15T08:51:09.470Z,34.37
2023-02-15T08:53:36.523Z,36.70
2023-02-15T08:56:03.403Z,38.50
2023-02-15T08:58:31.720Z,39.65
2023-02-15T09:00:59.142Z,35.85
2023-02-15T09:03:26.342Z,33.93
2023-02-15T09:05:59.029Z,34.55
2023-02-15T09:08:26.966Z,36.50
2023-02-15T09:10:54.082Z,38.10
2023-02-15T09:13:21.657Z,44.25
2023-02-15T09:15:48.567Z,33.67
2023-02-15T09:18:18.023Z,42.78
2023-02-15T09:20:46.045Z,36.03
2023-02-15T09:23:25.525Z,35.42
2023-02-15T09:25:53.994Z,36.97
2023-02-15T09:28:20.904Z,42.07
2023-02-15T09:30:47.831Z,32.70
2023-02-15T09:33:14.801Z,36.22
2023-02-15T09:35:41.569Z,43.85
2023-02-15T09:38:08.625Z,39.38
2023-02-15T09:40:47.158Z,43.97
2023-02-15T09:43:34.200Z,38.67
2023-02-15T09:46:19.643Z,39.35
2023-02-15T09:48:54.927Z,41.20
2023-02-15T09:51:50.768Z,43.22
2023-02-15T09:54:58.838Z,36.90
2023-02-15T09:57:43.138Z,40.60
2023-02-15T10:00:43.008Z,39.25
2023-02-15T10:03:30.806Z,40.90
2023-02-15T10:06:00.443Z,41.33
2023-02-15T10:08:41.689Z,36.63
2023-02-15T10:11:47.469Z,38.95
2023-02-15T10:14:41.731Z,37.70
2023-02-15T10:17:22.813Z,39.88
2023-02-15T10:20:08.992Z,40.30
2023-02-15T10:23:04.328Z,42.77
2023-02-15T10:25:49.994Z,40.35
2023-02-15T10:28:24.623Z,42.70
2023-02-15T10:31:14.159Z,42.28
2023-02-15T10:33:44.783Z,42.38
2023-02-15T10:36:20.567Z,43.97
2023-02-15T10:39:11.987Z,40.25
2023-02-15T10:42:03.288Z,40.05
2023-02-15T10:44:56.463Z,40.50
2023-02-15T10:47:54.258Z,46.55
2023-02-15T10:50:42.157Z,40.30
2023-02-15T10:53:19.671Z,41.58
2023-02-15T10:56:04.546Z,41.85
2023-02-15T10:59:06.364Z,43.17
2023-02-15T11:01:42.254Z,43.08
2023-02-15T11:04:46.700Z,41.73
2023-02-15T11:07:29.027Z,47.50
2023-02-15T11:10:12.217Z,45.83
2023-02-15T11:12:41.737Z,45.58
2023-02-15T11:15:27.489Z,44.10
2023-02-15T11:18:03.671Z,42.23
2023-02-15T11:20:43.494Z,40.85
2023-02-15T11:23:17.394Z,42.60
2023-02-15T11:26:10.569Z,42.78
2023-02-15T11:28:52.549Z,42.22
2023-02-15T11:31:25.836Z,43.73
2023-02-15T11:34:07.345Z,44.70
2023-02-15T11:36:38.515Z,42.55
2023-02-15T11:39:15.434Z,42.58
2023-02-15T11:41:53.005Z,42.28
2023-02-15T11:44:56.603Z,42.63
2023-02-15T11:47:23.833Z,44.00
2023-02-15T11:49:50.807Z,43.55
2023-02-15T11:52:19.755Z,47.38
2023-02-15T11:54:53.299Z,41.63
2023-02-15T11:57:32.893Z,42.93
2023-02-15T12:00:24.821Z,44.55
2023-02-15T12:02:55.566Z,42.80
2023-02-15T12:05:26.019Z,45.05
2023-02-15T12:08:22.352Z,42.40
2023-02-15T12:11:08.431Z,44.33
2023-02-15T12:13:35.229Z,43.72
2023-02-15T12:16:11.064Z,45.45
2023-02-15T12:18:45.391Z,46.83
2023-02-15T12:21:27.502Z,42.28
2023-02-15T12:23:59.374Z,45.37
2023-02-15T12:26:29.352Z,42.75
2023-02-15T12:29:03.239Z,45.00
2023-02-15T12:31:38.558Z,37.38
2023-02-15T12:34:13.810Z,47.85
2023-02-15T12:36:47.420Z,46.97
2023-02-15T12:39:14.186Z,45.70
2023-02-15T12:41:58.499Z,44.63
2023-02-15T12:44:34.611Z,45.55
2023-02-15T12:47:19.917Z,48.42
2023-02-15T12:50:12.647Z,47.20
2023-02-15T12:52:40.222Z,46.40
2023-02-15T12:55:26.602Z,46.70
2023-02-15T12:58:18.576Z,44.45
2023-02-15T13:00:46.767Z,47.28
2023-02-15T13:03:19.133Z,46.17
2023-02-15T13:05:51.692Z,46.70
2023-02-15T13:08:18.483Z,54.05
2023-02-15T13:11:05.091Z,49.58
2023-02-15T13:13:35.462Z,46.97
2023-02-15T13:16:08.338Z,44.10
2023-02-15T13:18:43.530Z,43.75
2023-02-15T13:21:20.654Z,51.30
2023-02-15T13:23:54.307Z,48.65
2023-02-15T13:26:24.565Z,48.00
2023-02-15T13:28:56.539Z,42.50
2023-02-15T13:31:28.679Z,41.53
2023-02-15T13:34:00.916Z,45.58
2023-02-15T13:36:48.452Z,42.33
2023-02-15T13:39:23.351Z,45.22
2023-02-15T13:42:22.019Z,45.33
2023-02-15T13:44:58.569Z,49.13
2023-02-15T13:47:52.829Z,48.13
2023-02-15T13:50:45.107Z,47.08
2023-02-15T13:53:35.357Z,44.10
2023-02-15T13:56:15.637Z,44.23
2023-02-15T13:58:48.759Z,43.05
2023-02-15T14:01:28.372Z,42.60
2023-02-15T14:04:06.922Z,45.33
2023-02-15T14:07:10.782Z,43.10
2023-02-15T14:09:56.108Z,45.47
2023-02-15T14:12:40.885Z,38.90
2023-02-15T14:15:27.359Z,46.33
2023-02-15T14:18:08.967Z,47.63
2023-02-15T14:20:36.061Z,45.10
2023-02-15T14:23:35.833Z,47.40
2023-02-15T14:26:24.596Z,49.05
2023-02-15T14:29:24.322Z,46.50
2023-02-15T14:31:56.501Z,42.80
2023-02-15T14:34:31.327Z,41.42
2023-02-15T14:36:59.417Z,41.93
2023-02-15T14:40:04.647Z,39.65
2023-02-15T14:42:41.062Z,45.92
2023-02-15T14:45:22.854Z,41.67
2023-02-15T14:48:22.445Z,41.50
2023-02-15T14:50:49.564Z,44.67
2023-02-15T14:53:37.074Z,44.30
2023-02-15T14:56:22.580Z,43.28
2023-02-15T14:58:55.050Z,47.35
2023-02-15T15:01:33.341Z,42.63
2023-02-15T15:04:28.376Z,50.47
2023-02-15T15:07:01.144Z,42.88
2023-02-15T15:09:30.965Z,45.08
2023-02-15T15:12:26.876Z,46.95
2023-02-15T15:14:55.217Z,44.25
2023-02-15T15:17:34.952Z,50.17
2023-02-15T15:20:14.008Z,47.78
2023-02-15T15:22:44.598Z,51.92
2023-02-15T15:25:29.906Z,43.83
2023-02-15T15:27:57.043Z,47.08
2023-02-15T15:30:23.882Z,49.73
2023-02-15T15:33:00.176Z,51.20
2023-02-15T15:35:45.952Z,47.97
2023-02-15T15:38:37.742Z,50.80
2023-02-15T15:41:25.555Z,47.38
2023-02-15T15:44:22.633Z,48.37
2023-02-15T15:47:05.121Z,50.63
2023-02-15T15:49:34.526Z,50.75
2023-02-15T15:52:04.590Z,49.85
2023-02-15T15:54:31.721Z,44.53
2023-02-15T15:57:03.870Z,46.07
2023-02-15T15:59:35.326Z,45.53
2023-02-15T16:02:12.453Z,47.55
2023-02-15T16:04:39.276Z,50.40
2023-02-15T16:07:18.213Z,49.72
2023-02-15T16:09:59.891Z,48.67
2023-02-15T16:12:33.139Z,50.20
2023-02-15T16:15:14.391Z,48.42
2023-02-15T16:17:49.635Z,48.15
2023-02-15T16:20:30.544Z,49.55
2023-02-15T16:23:00.087Z,46.87
2023-02-15T16:26:04.881Z,46.88
2023-02-15T16:28:32.061Z,44.17
2023-02-15T16:31:16.171Z,48.42
2023-02-15T16:33:45.819Z,49.33
2023-02-15T16:36:21.333Z,50.80
2023-02-15T16:38:48.095Z,66.47
2023-02-15T16:41:18.406Z,60.65
2023-02-15T16:43:48.977Z,59.28
2023-02-15T16:46:49.092Z,58.35
2023-02-15T16:49:25.616Z,54.97
2023-02-15T16:52:08.053Z,55.15
2023-02-15T16:54:36.390Z,58.35
2023-02-15T16:57:03.681Z,49.97
2023-02-15T16:59:44.364Z,55.55
2023-02-15T17:02:42.970Z,61.97
2023-02-15T17:05:20.046Z,50.75
2023-02-15T17:08:13.478Z,49.97
2023-02-15T17:10:45.949Z,49.70
2023-02-15T17:13:18.350Z,50.42
2023-02-15T17:16:04.078Z,57.20
2023-02-15T17:18:45.699Z,57.75
2023-02-15T17:21:18.933Z,54.03
2023-02-15T17:23:52.518Z,56.35
2023-02-15T17:26:26.353Z,50.53
2023-02-15T17:28:58.981Z,45.90
2023-02-15T17:31:30.879Z,48.58
2023-02-15T17:33:59.653Z,48.28
2023-02-15T17:36:30.220Z,45.88
2023-02-15T17:39:02.308Z,46.92
2023-02-15T17:41:31.408Z,53.23
2023-02-15T17:43:58.687Z,55.35
2023-02-15T17:46:28.542Z,55.92
2023-02-15T17:48:56.256Z,49.63
2023-02-15T17:51:23.797Z,51.30
2023-02-15T17:54:09.078Z,48.20
2023-02-15T17:56:37.415Z,46.58
2023-02-15T17:59:07.765Z,49.10
2023-02-15T18:01:55.590Z,55.88
2023-02-15T18:04:42.060Z,57.05
2023-02-15T18:07:31.000Z,54.47
2023-02-15T18:10:16.212Z,52.33
2023-02-15T18:12:43.176Z,44.88
2023-02-15T18:15:12.709Z,48.28
2023-02-15T18:17:47.157Z,44.83
2023-02-15T18:20:32.966Z,44.73
2023-02-15T18:23:02.241Z,55.28
2023-02-15T18:25:29.400Z,52.45
2023-02-15T18:27:56.416Z,50.92
2023-02-15T18:30:29.317Z,57.47
2023-02-15T18:32:58.947Z,49.20
2023-02-15T18:35:32.658Z,49.80
2023-02-15T18:38:01.258Z,48.10
2023-02-15T18:40:29.565Z,47.38
2023-02-15T18:42:57.440Z,50.67
2023-02-15T18:45:36.204Z,49.07
2023-02-15T18:48:03.182Z,48.03
2023-02-15T18:50:34.113Z,48.13
2023-02-15T18:53:03.691Z,51.45
2023-02-15T18:55:32.748Z,46.67
2023-02-15T18:58:01.235Z,51.57
2023-02-15T19:00:32.447Z,46.10
2023-02-15T19:03:05.085Z,45.97
2023-02-15T19:05:33.250Z,48.15
2023-02-15T19:08:01.734Z,48.97
2023-02-15T19:10:31.117Z,48.20
2023-02-15T19:12:58.258Z,49.03
2023-02-15T19:15:27.592Z,47.75
2023-02-15T19:17:55.065Z,43.45
2023-02-15T19:20:24.703Z,47.38
2023-02-15T19:22:53.440Z,51.37
2023-02-15T19:25:23.946Z,48.85
2023-02-15T19:27:51.619Z,49.45
2023-02-15T19:30:32.205Z,47.15
2023-02-15T19:33:00.599Z,43.83
2023-02-15T19:35:31.699Z,48.70
2023-02-15T19:38:01.164Z,48.97
2023-02-15T19:40:33.166Z,50.80
2023-02-15T19:43:00.564Z,44.65
2023-02-15T19:45:32.819Z,50.15
2023-02-15T19:48:02.889Z,47.57
2023-02-15T19:50:32.686Z,53.60
2023-02-15T19:52:59.930Z,47.22
2023-02-15T19:55:34.994Z,51.20
2023-02-15T19:58:02.897Z,51.58
2023-02-15T20:00:32.519Z,47.63
2023-02-15T20:03:00.829Z,48.50
2023-02-15T20:05:30.574Z,50.35
2023-02-15T20:08:09.212Z,55.30
2023-02-15T20:10:36.096Z,47.55
2023-02-15T20:13:03.380Z,51.97
2023-02-15T20:15:35.054Z,45.95
2023-02-15T20:18:04.166Z,49.97
2023-02-15T20:20:43.897Z,46.78
2023-02-15T20:23:24.915Z,50.03
2023-02-15T20:25:52.611Z,50.03
2023-02-15T20:28:22.204Z,48.42
2023-02-15T20:30:49.867Z,49.97
2023-02-15T20:33:17.796Z,47.83
2023-02-15T20:35:45.888Z,43.63
2023-02-15T20:38:30.929Z,50.97
2023-02-15T20:41:32.391Z,45.85
2023-02-15T20:43:59.596Z,45.08
2023-02-15T20:46:26.821Z,49.67
2023-02-15T20:48:53.853Z,52.05
2023-02-15T20:51:22.038Z,48.07
2023-02-15T20:53:48.929Z,47.97
2023-02-15T20:56:20.741Z,47.33
2023-02-15T20:58:48.178Z,50.20
2023-02-15T21:01:15.434Z,45.80
2023-02-15T21:03:42.808Z,49.40
2023-02-15T21:06:12.728Z,54.03
2023-02-15T21:08:39.721Z,47.03
2023-02-15T21:11:19.030Z,47.15
2023-02-15T21:13:45.982Z,51.05
2023-02-15T21:16:12.836Z,48.13
2023-02-15T21:18:42.192Z,50.63
2023-02-15T21:21:18.677Z,49.05
2023-02-15T21:23:46.122Z,53.70
2023-02-15T21:26:20.238Z,48.08
2023-02-15T21:28:48.113Z,48.07
2023-02-15T21:31:20.870Z,46.05
2023-02-15T21:33:47.922Z,49.72
2023-02-15T21:36:21.798Z,47.03
2023-02-15T21:38:49.830Z,50.63
2023-02-15T21:41:40.794Z,46.33
2023-02-15T21:44:41.523Z,48.70
2023-02-15T21:47:57.445Z,47.60
2023-02-15T21:50:44.114Z,46.85
2023-02-15T21:53:13.894Z,49.95
2023-02-15T21:57:01.717Z,45.97
2023-02-15T21:59:58.238Z,50.35
2023-02-15T22:02:30.534Z,45.28
2023-02-15T22:04:59.059Z,44.75
2023-02-15T22:07:25.963Z,50.03
2023-02-15T22:09:54.330Z,47.77
2023-02-15T22:12:21.991Z,43.20
2023-02-15T22:14:54.338Z,53.60
2023-02-15T22:17:25.395Z,47.20
2023-02-15T22:19:52.617Z,46.83
2023-02-15T22:22:19.605Z,49.83
2023-02-15T22:24:46.953Z,45.45
2023-02-15T22:27:27.810Z,42.45
2023-02-15T22:29:55.609Z,43.97
2023-02-15T22:32:26.854Z,52.30
2023-02-15T22:34:54.319Z,46.97
2023-02-15T22:37:21.734Z,48.50
2023-02-15T22:39:49.376Z,45.15
2023-02-15T22:42:27.380Z,48.85
2023-02-15T22:44:56.317Z,46.05
2023-02-15T22:47:26.198Z,47.57
2023-02-15T22:49:54.615Z,43.20
2023-02-15T22:52:22.124Z,48.85
2023-02-15T22:54:49.176Z,49.25
2023-02-15T22:57:29.301Z,48.13
2023-02-15T22:59:56.710Z,48.37
2023-02-15T23:02:23.574Z,46.13
2023-02-15T23:04:50.475Z,45.75
2023-02-15T23:07:19.053Z,47.47
2023-02-15T23:09:46.686Z,53.75
2023-02-15T23:12:49.398Z,46.90
2023-02-15T23:15:19.371Z,46.45
2023-02-15T23:17:46.272Z,49.25
2023-02-15T23:20:16.810Z,50.65
2023-02-15T23:22:44.457Z,52.50
2023-02-15T23:25:12.002Z,50.10
2023-02-15T23:27:57.034Z,49.70
2023-02-15T23:30:24.085Z,48.33
2023-02-15T23:32:54.173Z,51.92
2023-02-15T23:35:21.142Z,49.25
2023-02-15T23:37:48.064Z,48.93
2023-02-15T23:40:34.732Z,49.88
2023-02-15T23:43:01.783Z,47.63
2023-02-15T23:45:29.546Z,50.03
2023-02-15T23:48:18.211Z,51.95
2023-02-15T23:50:45.075Z,53.03
2023-02-15T23:53:11.983Z,48.65
2023-02-15T23:55:43.153Z,50.97
2023-02-15T23:58:19.210Z,49.20
